sensor_id;sensor_type;location;lat;lon;timestamp;pressure;altitude;pressure_sealevel;temperature;humidity
49583;BME280;36329;48.816;44.624;2023-07-20T00:00:48;100326;;;19.7;57.7
49583;BME280;36329;48.816;44.624;2023-07-20T00:03:50;100335;;;19.8;56.8
49583;BME280;36329;48.816;44.624;2023-07-20T00:06:52;100343;;;19.8;56.9
49583;BME280;36329;48.816;44.624;2023-07-20T00:09:54;100335;;;20;57.1
49583;BME280;36329;48.816;44.624;2023-07-20T00:12:56;100339;;;20;56
49583;BME280;36329;48.816;44.624;2023-07-20T00:15:58;100334;;;19.7;56.7
49583;BME280;36329;48.816;44.624;2023-07-20T00:19:00;100330;;;19.7;57.1
49583;BME280;36329;48.816;44.624;2023-07-20T00:22:02;100334;;;19.8;56.5
49583;BME280;36329;48.816;44.624;2023-07-20T00:25:05;100325;;;20;57.2
49583;BME280;36329;48.816;44.624;2023-07-20T00:28:06;100325;;;20.3;55.6
49583;BME280;36329;48.816;44.624;2023-07-20T00:31:09;100330;;;20.2;55.7
49583;BME280;36329;48.816;44.624;2023-07-20T00:34:11;100333;;;20.2;56.9
49583;BME280;36329;48.816;44.624;2023-07-20T00:37:13;100336;;;20;55.8
49583;BME280;36329;48.816;44.624;2023-07-20T00:40:15;100340;;;19.9;56.6
49583;BME280;36329;48.816;44.624;2023-07-20T00:43:17;100345;;;19.8;57.3
49583;BME280;36329;48.816;44.624;2023-07-20T00:46:21;100346;;;19.6;57.5
49583;BME280;36329;48.816;44.624;2023-07-20T00:49:24;100352;;;19.5;57.9
49583;BME280;36329;48.816;44.624;2023-07-20T00:52:27;100355;;;19.4;58.7
49583;BME280;36329;48.816;44.624;2023-07-20T00:55:29;100361;;;19.4;58.8
49583;BME280;36329;48.816;44.624;2023-07-20T00:58:32;100361;;;19.3;58.7
49583;BME280;36329;48.816;44.624;2023-07-20T01:01:33;100368;;;19.3;59.2
49583;BME280;36329;48.816;44.624;2023-07-20T01:04:37;100369;;;19;59.5
49583;BME280;36329;48.816;44.624;2023-07-20T01:07:43;100372;;;19;59.6
49583;BME280;36329;48.816;44.624;2023-07-20T01:10:52;100374;;;18.9;60.2
49583;BME280;36329;48.816;44.624;2023-07-20T01:13:56;100374;;;18.8;60.7
49583;BME280;36329;48.816;44.624;2023-07-20T01:16:58;100377;;;18.8;60.8
49583;BME280;36329;48.816;44.624;2023-07-20T01:20:00;100377;;;19;60.5
49583;BME280;36329;48.816;44.624;2023-07-20T01:23:22;100379;;;19;60.4
49583;BME280;36329;48.816;44.624;2023-07-20T01:26:48;100385;;;19.1;59.9
49583;BME280;36329;48.816;44.624;2023-07-20T01:30:08;100375;;;19.3;59.4
49583;BME280;36329;48.816;44.624;2023-07-20T01:33:14;100376;;;19.2;59.8
49583;BME280;36329;48.816;44.624;2023-07-20T01:36:19;100378;;;19.3;59.4
49583;BME280;36329;48.816;44.624;2023-07-20T01:39:23;100382;;;19.3;59.2
49583;BME280;36329;48.816;44.624;2023-07-20T01:42:26;100382;;;19.5;59.1
49583;BME280;36329;48.816;44.624;2023-07-20T01:45:28;100386;;;19.5;58.8
49583;BME280;36329;48.816;44.624;2023-07-20T01:48:30;100395;;;19.4;59.7
49583;BME280;36329;48.816;44.624;2023-07-20T01:51:32;100395;;;19.6;59.6
49583;BME280;36329;48.816;44.624;2023-07-20T01:54:34;100401;;;19.7;58.1
49583;BME280;36329;48.816;44.624;2023-07-20T01:57:37;100400;;;19.8;58.9
49583;BME280;36329;48.816;44.624;2023-07-20T02:00:39;100403;;;19.8;58.2
49583;BME280;36329;48.816;44.624;2023-07-20T02:03:41;100403;;;19.9;58.3
49583;BME280;36329;48.816;44.624;2023-07-20T02:06:43;100409;;;20;58.2
49583;BME280;36329;48.816;44.624;2023-07-20T02:09:45;100408;;;19.9;57.6
49583;BME280;36329;48.816;44.624;2023-07-20T02:12:47;100414;;;19.9;58.1
49583;BME280;36329;48.816;44.624;2023-07-20T02:15:49;100419;;;19.9;57.9
49583;BME280;36329;48.816;44.624;2023-07-20T02:18:52;100416;;;19.9;57.9
49583;BME280;36329;48.816;44.624;2023-07-20T02:21:55;100417;;;19.7;58.3
49583;BME280;36329;48.816;44.624;2023-07-20T02:24:57;100423;;;19.6;59.4
49583;BME280;36329;48.816;44.624;2023-07-20T02:27:59;100427;;;19.8;58.5
49583;BME280;36329;48.816;44.624;2023-07-20T02:31:01;100428;;;20;58.2
49583;BME280;36329;48.816;44.624;2023-07-20T02:34:04;100437;;;19.9;58.6
49583;BME280;36329;48.816;44.624;2023-07-20T02:37:06;100436;;;20;58.6
49583;BME280;36329;48.816;44.624;2023-07-20T02:40:08;100440;;;20;58.7
49583;BME280;36329;48.816;44.624;2023-07-20T02:43:10;100444;;;20.1;58.8
49583;BME280;36329;48.816;44.624;2023-07-20T02:46:12;100443;;;20.1;58.7
49583;BME280;36329;48.816;44.624;2023-07-20T02:49:14;100448;;;20.1;58.9
49583;BME280;36329;48.816;44.624;2023-07-20T02:52:16;100452;;;20.3;58.4
49583;BME280;36329;48.816;44.624;2023-07-20T02:55:18;100453;;;20.4;58.3
49583;BME280;36329;48.816;44.624;2023-07-20T02:58:20;100457;;;20.4;58.8
49583;BME280;36329;48.816;44.624;2023-07-20T03:01:22;100459;;;20.5;58.5
49583;BME280;36329;48.816;44.624;2023-07-20T03:04:26;100467;;;20.5;57.8
49583;BME280;36329;48.816;44.624;2023-07-20T03:07:28;100469;;;20.6;57.9
49583;BME280;36329;48.816;44.624;2023-07-20T03:10:30;100470;;;20.6;57.6
49583;BME280;36329;48.816;44.624;2023-07-20T03:13:32;100476;;;20.8;57.8
49583;BME280;36329;48.816;44.624;2023-07-20T03:16:34;100478;;;20.9;57.3
49583;BME280;36329;48.816;44.624;2023-07-20T03:19:36;100490;;;21.1;56.9
49583;BME280;36329;48.816;44.624;2023-07-20T03:22:38;100484;;;21.5;56.1
49583;BME280;36329;48.816;44.624;2023-07-20T03:25:40;100489;;;21.5;56.3
49583;BME280;36329;48.816;44.624;2023-07-20T03:28:42;100488;;;21.6;56.5
49583;BME280;36329;48.816;44.624;2023-07-20T03:31:44;100490;;;21.9;56
49583;BME280;36329;48.816;44.624;2023-07-20T03:34:47;100484;;;22;56
49583;BME280;36329;48.816;44.624;2023-07-20T03:37:48;100490;;;22.1;55.4
49583;BME280;36329;48.816;44.624;2023-07-20T03:40:51;100497;;;22.3;54.8
49583;BME280;36329;48.816;44.624;2023-07-20T03:43:53;100495;;;22.5;53.8
49583;BME280;36329;48.816;44.624;2023-07-20T03:46:55;100503;;;22.6;53.3
49583;BME280;36329;48.816;44.624;2023-07-20T03:49:57;100493;;;22.6;51.5
49583;BME280;36329;48.816;44.624;2023-07-20T03:52:59;100497;;;22.9;50.9
49583;BME280;36329;48.816;44.624;2023-07-20T03:56:01;100494;;;23.1;51.2
49583;BME280;36329;48.816;44.624;2023-07-20T03:59:03;100486;;;23.3;50.1
49583;BME280;36329;48.816;44.624;2023-07-20T04:02:05;100485;;;23.4;50.2
49583;BME280;36329;48.816;44.624;2023-07-20T04:05:07;100488;;;23.5;49.9
49583;BME280;36329;48.816;44.624;2023-07-20T04:08:09;100488;;;23.5;50.1
49583;BME280;36329;48.816;44.624;2023-07-20T04:11:12;100481;;;23.5;49.9
49583;BME280;36329;48.816;44.624;2023-07-20T04:14:14;100483;;;23.7;47.8
49583;BME280;36329;48.816;44.624;2023-07-20T04:17:16;100488;;;23.6;47.5
49583;BME280;36329;48.816;44.624;2023-07-20T04:20:17;100494;;;23.5;49
49583;BME280;36329;48.816;44.624;2023-07-20T04:23:21;100497;;;23.5;48.2
49583;BME280;36329;48.816;44.624;2023-07-20T04:26:23;100495;;;23.5;49.2
49583;BME280;36329;48.816;44.624;2023-07-20T04:29:25;100492;;;23.7;48.5
49583;BME280;36329;48.816;44.624;2023-07-20T04:32:27;100493;;;23.9;48.3
49583;BME280;36329;48.816;44.624;2023-07-20T04:35:46;100502;;;23.9;47.7
49583;BME280;36329;48.816;44.624;2023-07-20T04:38:49;100505;;;24.1;47.7
49583;BME280;36329;48.816;44.624;2023-07-20T04:41:51;100507;;;24.2;46.4
49583;BME280;36329;48.816;44.624;2023-07-20T04:44:53;100514;;;24.2;45.3
49583;BME280;36329;48.816;44.624;2023-07-20T04:47:55;100518;;;24.3;46.2
49583;BME280;36329;48.816;44.624;2023-07-20T04:50:57;100512;;;24.5;43.9
49583;BME280;36329;48.816;44.624;2023-07-20T04:53:59;100516;;;24.5;45.8
49583;BME280;36329;48.816;44.624;2023-07-20T04:57:02;100514;;;24.5;44.6
49583;BME280;36329;48.816;44.624;2023-07-20T05:00:04;100515;;;24.6;45.7
49583;BME280;36329;48.816;44.624;2023-07-20T05:03:14;100518;;;24.9;44.1
49583;BME280;36329;48.816;44.624;2023-07-20T05:06:16;100524;;;24.9;44
49583;BME280;36329;48.816;44.624;2023-07-20T05:09:18;100524;;;25.1;43.8
49583;BME280;36329;48.816;44.624;2023-07-20T05:12:20;100525;;;25;42.8
49583;BME280;36329;48.816;44.624;2023-07-20T05:15:22;100526;;;25.1;43.2
49583;BME280;36329;48.816;44.624;2023-07-20T05:18:25;100534;;;25.1;43.1
49583;BME280;36329;48.816;44.624;2023-07-20T05:21:27;100530;;;25.3;42
49583;BME280;36329;48.816;44.624;2023-07-20T05:24:29;100534;;;25.4;41.9
49583;BME280;36329;48.816;44.624;2023-07-20T05:27:31;100530;;;25.6;41.3
49583;BME280;36329;48.816;44.624;2023-07-20T05:30:33;100529;;;25.8;42.7
49583;BME280;36329;48.816;44.624;2023-07-20T05:33:35;100529;;;25.9;43.1
49583;BME280;36329;48.816;44.624;2023-07-20T05:36:37;100533;;;26;39.3
49583;BME280;36329;48.816;44.624;2023-07-20T05:39:39;100531;;;26;39.7
49583;BME280;36329;48.816;44.624;2023-07-20T05:42:41;100530;;;26.2;41
49583;BME280;36329;48.816;44.624;2023-07-20T05:45:43;100533;;;26.2;38.8
49583;BME280;36329;48.816;44.624;2023-07-20T05:48:45;100536;;;26.5;43.7
49583;BME280;36329;48.816;44.624;2023-07-20T05:51:47;100534;;;26.8;40.9
49583;BME280;36329;48.816;44.624;2023-07-20T05:54:49;100525;;;26.9;41.6
49583;BME280;36329;48.816;44.624;2023-07-20T05:57:51;100528;;;27;40.3
49583;BME280;36329;48.816;44.624;2023-07-20T06:00:53;100531;;;27;37.7
49583;BME280;36329;48.816;44.624;2023-07-20T06:03:55;100532;;;27.1;36.3
49583;BME280;36329;48.816;44.624;2023-07-20T06:06:59;100526;;;27;36.8
49583;BME280;36329;48.816;44.624;2023-07-20T06:10:01;100545;;;26.8;36.6
49583;BME280;36329;48.816;44.624;2023-07-20T06:13:06;100546;;;26.8;36.2
49583;BME280;36329;48.816;44.624;2023-07-20T06:16:09;100542;;;27.2;35.7
49583;BME280;36329;48.816;44.624;2023-07-20T06:19:11;100543;;;27.2;35.2
49583;BME280;36329;48.816;44.624;2023-07-20T06:22:13;100537;;;27.4;34.7
49583;BME280;36329;48.816;44.624;2023-07-20T06:25:15;100536;;;27.4;35.3
49583;BME280;36329;48.816;44.624;2023-07-20T06:28:17;100546;;;27.4;35.6
49583;BME280;36329;48.816;44.624;2023-07-20T06:31:19;100542;;;27.7;34.4
49583;BME280;36329;48.816;44.624;2023-07-20T06:34:21;100551;;;28.1;35.6
49583;BME280;36329;48.816;44.624;2023-07-20T06:37:24;100543;;;27.9;34.8
49583;BME280;36329;48.816;44.624;2023-07-20T06:40:26;100548;;;27.3;35.7
49583;BME280;36329;48.816;44.624;2023-07-20T06:43:28;100546;;;27.2;34.7
49583;BME280;36329;48.816;44.624;2023-07-20T06:46:30;100546;;;27.5;35.5
49583;BME280;36329;48.816;44.624;2023-07-20T06:49:32;100543;;;27.9;33.8
49583;BME280;36329;48.816;44.624;2023-07-20T06:52:34;100539;;;28.3;33.3
49583;BME280;36329;48.816;44.624;2023-07-20T06:55:36;100554;;;28.4;34
49583;BME280;36329;48.816;44.624;2023-07-20T06:58:38;100552;;;28.6;32.6
49583;BME280;36329;48.816;44.624;2023-07-20T07:01:40;100546;;;28.7;32.5
49583;BME280;36329;48.816;44.624;2023-07-20T07:04:42;100545;;;28;32.6
49583;BME280;36329;48.816;44.624;2023-07-20T07:07:45;100544;;;28.1;32.9
49583;BME280;36329;48.816;44.624;2023-07-20T07:10:47;100538;;;28.5;31.6
49583;BME280;36329;48.816;44.624;2023-07-20T07:13:49;100534;;;27.6;32.7
49583;BME280;36329;48.816;44.624;2023-07-20T07:16:51;100536;;;27.9;32.2
49583;BME280;36329;48.816;44.624;2023-07-20T07:19:54;100531;;;28.6;30
49583;BME280;36329;48.816;44.624;2023-07-20T07:22:56;100529;;;28.8;30.6
49583;BME280;36329;48.816;44.624;2023-07-20T07:25:58;100538;;;28.9;30
49583;BME280;36329;48.816;44.624;2023-07-20T07:29:00;100543;;;29.3;29.9
49583;BME280;36329;48.816;44.624;2023-07-20T07:32:03;100546;;;28.5;31
49583;BME280;36329;48.816;44.624;2023-07-20T07:35:05;100549;;;29.1;29.5
49583;BME280;36329;48.816;44.624;2023-07-20T07:38:08;100548;;;29.9;27.6
49583;BME280;36329;48.816;44.624;2023-07-20T07:41:10;100544;;;30.5;28.4
49583;BME280;36329;48.816;44.624;2023-07-20T07:44:12;100552;;;30.7;26.4
49583;BME280;36329;48.816;44.624;2023-07-20T07:47:14;100552;;;30.8;27.6
49583;BME280;36329;48.816;44.624;2023-07-20T07:50:16;100542;;;31;26.8
49583;BME280;36329;48.816;44.624;2023-07-20T07:53:18;100548;;;31;26.3
49583;BME280;36329;48.816;44.624;2023-07-20T07:56:20;100548;;;31.2;26.3
49583;BME280;36329;48.816;44.624;2023-07-20T07:59:22;100544;;;31.3;26.6
49583;BME280;36329;48.816;44.624;2023-07-20T08:02:24;100536;;;30.5;27.1
49583;BME280;36329;48.816;44.624;2023-07-20T08:05:26;100526;;;30.9;27.6
49583;BME280;36329;48.816;44.624;2023-07-20T08:08:28;100530;;;31.4;27.3
49583;BME280;36329;48.816;44.624;2023-07-20T08:11:31;100533;;;31.5;25.8
49583;BME280;36329;48.816;44.624;2023-07-20T08:14:33;100524;;;31.9;25.4
49583;BME280;36329;48.816;44.624;2023-07-20T08:17:35;100526;;;31.3;26.1
49583;BME280;36329;48.816;44.624;2023-07-20T08:20:37;100526;;;31;26.3
49583;BME280;36329;48.816;44.624;2023-07-20T08:23:40;100526;;;29.5;27.3
49583;BME280;36329;48.816;44.624;2023-07-20T08:26:42;100528;;;30;27.6
49583;BME280;36329;48.816;44.624;2023-07-20T08:29:43;100520;;;31;26.4
49583;BME280;36329;48.816;44.624;2023-07-20T08:32:45;100526;;;31.7;25.9
49583;BME280;36329;48.816;44.624;2023-07-20T08:35:47;100526;;;32.2;25.4
49583;BME280;36329;48.816;44.624;2023-07-20T08:38:49;100523;;;31.8;24.6
49583;BME280;36329;48.816;44.624;2023-07-20T08:41:51;100515;;;30.8;25.8
49583;BME280;36329;48.816;44.624;2023-07-20T08:44:54;100514;;;30.9;25.4
49583;BME280;36329;48.816;44.624;2023-07-20T08:47:58;100515;;;31.2;25.7
49583;BME280;36329;48.816;44.624;2023-07-20T08:51:01;100519;;;31.4;25.6
49583;BME280;36329;48.816;44.624;2023-07-20T08:54:08;100527;;;32.2;25
49583;BME280;36329;48.816;44.624;2023-07-20T08:57:13;100528;;;32.2;24.8
49583;BME280;36329;48.816;44.624;2023-07-20T09:00:16;100523;;;31.4;25
49583;BME280;36329;48.816;44.624;2023-07-20T09:03:18;100516;;;31.4;26.4
49583;BME280;36329;48.816;44.624;2023-07-20T09:06:20;100517;;;31.9;25.5
49583;BME280;36329;48.816;44.624;2023-07-20T09:09:22;100520;;;32.5;24.8
49583;BME280;36329;48.816;44.624;2023-07-20T09:12:26;100516;;;30.5;27.4
49583;BME280;36329;48.816;44.624;2023-07-20T09:15:29;100511;;;30.1;26.6
49583;BME280;36329;48.816;44.624;2023-07-20T09:18:32;100516;;;29.8;28.7
49583;BME280;36329;48.816;44.624;2023-07-20T09:21:34;100514;;;30;26.9
49583;BME280;36329;48.816;44.624;2023-07-20T09:24:36;100506;;;29.8;29
49583;BME280;36329;48.816;44.624;2023-07-20T09:27:40;100510;;;29.3;28.2
49583;BME280;36329;48.816;44.624;2023-07-20T09:30:42;100504;;;30.2;28.5
49583;BME280;36329;48.816;44.624;2023-07-20T09:33:44;100508;;;29.6;27.8
49583;BME280;36329;48.816;44.624;2023-07-20T09:36:46;100505;;;28.9;28.5
49583;BME280;36329;48.816;44.624;2023-07-20T09:39:51;100520;;;28.9;28.4
49583;BME280;36329;48.816;44.624;2023-07-20T09:42:54;100519;;;29.9;28.2
49583;BME280;36329;48.816;44.624;2023-07-20T09:45:58;100512;;;29.8;28.1
49583;BME280;36329;48.816;44.624;2023-07-20T09:49:00;100522;;;29.3;28.8
49583;BME280;36329;48.816;44.624;2023-07-20T09:52:03;100509;;;29.5;27.9
49583;BME280;36329;48.816;44.624;2023-07-20T09:55:07;100504;;;30.4;26.5
49583;BME280;36329;48.816;44.624;2023-07-20T09:58:09;100504;;;30.3;26.6
49583;BME280;36329;48.816;44.624;2023-07-20T10:01:13;100509;;;29.2;28.2
49583;BME280;36329;48.816;44.624;2023-07-20T10:04:19;100506;;;29.4;27.8
49583;BME280;36329;48.816;44.624;2023-07-20T10:07:27;100510;;;30.1;27.4
49583;BME280;36329;48.816;44.624;2023-07-20T10:10:31;100510;;;29.6;27
49583;BME280;36329;48.816;44.624;2023-07-20T10:13:38;100510;;;29.6;26.8
49583;BME280;36329;48.816;44.624;2023-07-20T10:16:43;100514;;;30.5;25.9
49583;BME280;36329;48.816;44.624;2023-07-20T10:19:50;100516;;;30.7;25.9
49583;BME280;36329;48.816;44.624;2023-07-20T10:22:53;100516;;;30.4;27.2
49583;BME280;36329;48.816;44.624;2023-07-20T10:25:58;100516;;;30.4;27.1
49583;BME280;36329;48.816;44.624;2023-07-20T10:29:00;100508;;;30.1;27
49583;BME280;36329;48.816;44.624;2023-07-20T10:32:03;100516;;;29.7;27.4
49583;BME280;36329;48.816;44.624;2023-07-20T10:35:12;100509;;;29.2;27.3
49583;BME280;36329;48.816;44.624;2023-07-20T10:38:15;100513;;;30;28.1
49583;BME280;36329;48.816;44.624;2023-07-20T10:41:18;100517;;;30.1;26.6
49583;BME280;36329;48.816;44.624;2023-07-20T10:44:20;100509;;;30;27
49583;BME280;36329;48.816;44.624;2023-07-20T10:47:22;100509;;;29.7;27.1
49583;BME280;36329;48.816;44.624;2023-07-20T10:50:24;100503;;;29.2;29.2
49583;BME280;36329;48.816;44.624;2023-07-20T10:53:26;100507;;;29.1;28.6
49583;BME280;36329;48.816;44.624;2023-07-20T10:56:29;100498;;;29.6;28.8
49583;BME280;36329;48.816;44.624;2023-07-20T10:59:39;100487;;;29.7;27.4
49583;BME280;36329;48.816;44.624;2023-07-20T11:02:42;100506;;;29.7;27.9
49583;BME280;36329;48.816;44.624;2023-07-20T11:05:44;100506;;;30.1;27.3
49583;BME280;36329;48.816;44.624;2023-07-20T11:08:46;100504;;;30.2;27
49583;BME280;36329;48.816;44.624;2023-07-20T11:11:48;100507;;;30;26.6
49583;BME280;36329;48.816;44.624;2023-07-20T11:14:54;100501;;;29.7;26.5
49583;BME280;36329;48.816;44.624;2023-07-20T11:18:11;100508;;;29.2;27
49583;BME280;36329;48.816;44.624;2023-07-20T11:21:14;100513;;;29.3;26.5
49583;BME280;36329;48.816;44.624;2023-07-20T11:24:17;100516;;;29.2;26.7
49583;BME280;36329;48.816;44.624;2023-07-20T11:27:19;100515;;;29.1;26.9
49583;BME280;36329;48.816;44.624;2023-07-20T11:30:21;100507;;;29.2;26.1
49583;BME280;36329;48.816;44.624;2023-07-20T11:33:23;100519;;;28.8;27
49583;BME280;36329;48.816;44.624;2023-07-20T11:36:25;100509;;;29.2;27.3
49583;BME280;36329;48.816;44.624;2023-07-20T11:39:27;100526;;;28.9;26.8
49583;BME280;36329;48.816;44.624;2023-07-20T11:42:30;100527;;;29;27.7
49583;BME280;36329;48.816;44.624;2023-07-20T11:45:34;100514;;;28.8;27.1
49583;BME280;36329;48.816;44.624;2023-07-20T11:48:36;100515;;;28.8;26.3
49583;BME280;36329;48.816;44.624;2023-07-20T11:51:39;100514;;;29;26.3
49583;BME280;36329;48.816;44.624;2023-07-20T11:54:42;100507;;;29.1;25.4
49583;BME280;36329;48.816;44.624;2023-07-20T11:58:01;100512;;;29.1;24.4
49583;BME280;36329;48.816;44.624;2023-07-20T12:01:03;100516;;;29;24.4
49583;BME280;36329;48.816;44.624;2023-07-20T12:04:05;100514;;;29.1;24.8
49583;BME280;36329;48.816;44.624;2023-07-20T12:07:07;100514;;;29.2;25.7
49583;BME280;36329;48.816;44.624;2023-07-20T12:10:11;100522;;;29;25.7
49583;BME280;36329;48.816;44.624;2023-07-20T12:13:14;100519;;;29.1;26.3
49583;BME280;36329;48.816;44.624;2023-07-20T12:16:16;100519;;;29.2;26.1
49583;BME280;36329;48.816;44.624;2023-07-20T12:19:19;100519;;;29.1;26.1
49583;BME280;36329;48.816;44.624;2023-07-20T12:22:21;100510;;;29.1;25.8
49583;BME280;36329;48.816;44.624;2023-07-20T12:25:23;100502;;;29.1;26.2
49583;BME280;36329;48.816;44.624;2023-07-20T12:28:25;100509;;;28.5;27
49583;BME280;36329;48.816;44.624;2023-07-20T12:31:27;100519;;;28.5;27.4
49583;BME280;36329;48.816;44.624;2023-07-20T12:34:29;100503;;;28.5;27.3
49583;BME280;36329;48.816;44.624;2023-07-20T12:37:31;100509;;;28.5;27.3
49583;BME280;36329;48.816;44.624;2023-07-20T12:40:33;100513;;;28.4;28
49583;BME280;36329;48.816;44.624;2023-07-20T12:43:35;100516;;;28.4;28.3
49583;BME280;36329;48.816;44.624;2023-07-20T12:46:37;100512;;;28.6;28.2
49583;BME280;36329;48.816;44.624;2023-07-20T12:49:39;100509;;;28.9;28.1
49583;BME280;36329;48.816;44.624;2023-07-20T12:52:41;100516;;;28.9;28.1
49583;BME280;36329;48.816;44.624;2023-07-20T12:55:43;100515;;;28.9;28.2
49583;BME280;36329;48.816;44.624;2023-07-20T12:58:45;100518;;;28.8;28.2
49583;BME280;36329;48.816;44.624;2023-07-20T13:01:48;100516;;;28.8;28.5
49583;BME280;36329;48.816;44.624;2023-07-20T13:04:50;100521;;;28.8;28.8
49583;BME280;36329;48.816;44.624;2023-07-20T13:07:52;100513;;;28.8;29.2
49583;BME280;36329;48.816;44.624;2023-07-20T13:10:54;100520;;;28.8;29.3
49583;BME280;36329;48.816;44.624;2023-07-20T13:13:56;100520;;;28.7;29.6
49583;BME280;36329;48.816;44.624;2023-07-20T13:16:59;100518;;;28.6;29.4
49583;BME280;36329;48.816;44.624;2023-07-20T13:20:01;100520;;;28.4;29.6
49583;BME280;36329;48.816;44.624;2023-07-20T13:23:05;100513;;;28.7;29.6
49583;BME280;36329;48.816;44.624;2023-07-20T13:26:07;100513;;;28.8;29.3
49583;BME280;36329;48.816;44.624;2023-07-20T13:29:09;100515;;;28.7;29.3
49583;BME280;36329;48.816;44.624;2023-07-20T13:32:13;100521;;;28.7;30
49583;BME280;36329;48.816;44.624;2023-07-20T13:35:15;100516;;;28.8;29.5
49583;BME280;36329;48.816;44.624;2023-07-20T13:38:17;100505;;;28.6;28.6
49583;BME280;36329;48.816;44.624;2023-07-20T13:41:19;100501;;;28.6;29
49583;BME280;36329;48.816;44.624;2023-07-20T13:44:21;100507;;;28.5;28.8
49583;BME280;36329;48.816;44.624;2023-07-20T13:47:23;100512;;;28.2;29.5
49583;BME280;36329;48.816;44.624;2023-07-20T13:50:25;100509;;;28.2;29.2
49583;BME280;36329;48.816;44.624;2023-07-20T13:53:27;100503;;;28.3;29.8
49583;BME280;36329;48.816;44.624;2023-07-20T13:56:29;100513;;;28.4;29.8
49583;BME280;36329;48.816;44.624;2023-07-20T13:59:31;100513;;;28.4;29.8
49583;BME280;36329;48.816;44.624;2023-07-20T14:02:33;100525;;;28.3;30.1
49583;BME280;36329;48.816;44.624;2023-07-20T14:05:36;100510;;;28.1;30.2
49583;BME280;36329;48.816;44.624;2023-07-20T14:08:38;100508;;;27.9;31
49583;BME280;36329;48.816;44.624;2023-07-20T14:11:40;100510;;;28;31.5
49583;BME280;36329;48.816;44.624;2023-07-20T14:14:42;100508;;;27.9;30.6
49583;BME280;36329;48.816;44.624;2023-07-20T14:17:44;100506;;;27.8;31.6
49583;BME280;36329;48.816;44.624;2023-07-20T14:20:46;100505;;;27.7;31.5
49583;BME280;36329;48.816;44.624;2023-07-20T14:23:48;100501;;;27.6;32.1
49583;BME280;36329;48.816;44.624;2023-07-20T14:26:51;100493;;;27.6;31.6
49583;BME280;36329;48.816;44.624;2023-07-20T14:29:53;100502;;;27.6;31.7
49583;BME280;36329;48.816;44.624;2023-07-20T14:32:55;100504;;;27.7;31.8
49583;BME280;36329;48.816;44.624;2023-07-20T14:35:57;100500;;;27.9;31.7
49583;BME280;36329;48.816;44.624;2023-07-20T14:38:58;100502;;;27.9;31
49583;BME280;36329;48.816;44.624;2023-07-20T14:42:01;100503;;;28;31.4
49583;BME280;36329;48.816;44.624;2023-07-20T14:45:04;100504;;;28;31.5
49583;BME280;36329;48.816;44.624;2023-07-20T14:48:07;100500;;;28;31.4
49583;BME280;36329;48.816;44.624;2023-07-20T14:51:09;100505;;;27.9;31.7
49583;BME280;36329;48.816;44.624;2023-07-20T14:54:11;100505;;;28;32.1
49583;BME280;36329;48.816;44.624;2023-07-20T14:57:12;100501;;;27.9;31.6
49583;BME280;36329;48.816;44.624;2023-07-20T15:00:15;100501;;;27.8;32.1
49583;BME280;36329;48.816;44.624;2023-07-20T15:03:17;100499;;;27.5;32.7
49583;BME280;36329;48.816;44.624;2023-07-20T15:06:19;100499;;;27.4;32.4
49583;BME280;36329;48.816;44.624;2023-07-20T15:09:21;100491;;;27.4;32.4
49583;BME280;36329;48.816;44.624;2023-07-20T15:12:23;100494;;;27.5;32.8
49583;BME280;36329;48.816;44.624;2023-07-20T15:15:25;100495;;;27.7;32.8
49583;BME280;36329;48.816;44.624;2023-07-20T15:18:27;100500;;;27.7;32.5
49583;BME280;36329;48.816;44.624;2023-07-20T15:21:29;100499;;;27.7;32.7
49583;BME280;36329;48.816;44.624;2023-07-20T15:24:32;100497;;;27.7;32.7
49583;BME280;36329;48.816;44.624;2023-07-20T15:27:34;100495;;;27.6;33
49583;BME280;36329;48.816;44.624;2023-07-20T15:30:37;100494;;;27.6;33.3
49583;BME280;36329;48.816;44.624;2023-07-20T15:33:39;100494;;;27.6;33.5
49583;BME280;36329;48.816;44.624;2023-07-20T15:36:41;100498;;;27.5;33.4
49583;BME280;36329;48.816;44.624;2023-07-20T15:39:43;100499;;;27.4;33.9
49583;BME280;36329;48.816;44.624;2023-07-20T15:42:45;100501;;;27.3;33.9
49583;BME280;36329;48.816;44.624;2023-07-20T15:45:48;100509;;;27.3;33.6
49583;BME280;36329;48.816;44.624;2023-07-20T15:48:50;100503;;;27.1;33.9
49583;BME280;36329;48.816;44.624;2023-07-20T15:51:52;100505;;;27.1;33.9
49583;BME280;36329;48.816;44.624;2023-07-20T15:54:54;100514;;;27.3;34.3
49583;BME280;36329;48.816;44.624;2023-07-20T15:57:56;100507;;;27.4;33.9
49583;BME280;36329;48.816;44.624;2023-07-20T16:00:58;100512;;;27.4;34.2
49583;BME280;36329;48.816;44.624;2023-07-20T16:04:00;100519;;;27.4;34.3
49583;BME280;36329;48.816;44.624;2023-07-20T16:07:04;100515;;;27.4;34.1
49583;BME280;36329;48.816;44.624;2023-07-20T16:10:06;100518;;;27.2;34.3
49583;BME280;36329;48.816;44.624;2023-07-20T16:13:08;100512;;;27.1;34.5
49583;BME280;36329;48.816;44.624;2023-07-20T16:16:10;100511;;;26.9;35
49583;BME280;36329;48.816;44.624;2023-07-20T16:19:13;100513;;;27;35.4
49583;BME280;36329;48.816;44.624;2023-07-20T16:22:14;100508;;;26.7;35.8
49583;BME280;36329;48.816;44.624;2023-07-20T16:25:17;100518;;;26.6;35.9
49583;BME280;36329;48.816;44.624;2023-07-20T16:28:19;100520;;;26.6;36
49583;BME280;36329;48.816;44.624;2023-07-20T16:31:21;100518;;;26.4;36.4
49583;BME280;36329;48.816;44.624;2023-07-20T16:34:23;100520;;;26.3;37
49583;BME280;36329;48.816;44.624;2023-07-20T16:37:25;100523;;;26.2;37.1
49583;BME280;36329;48.816;44.624;2023-07-20T16:40:27;100513;;;26.1;37.4
49583;BME280;36329;48.816;44.624;2023-07-20T16:43:29;100513;;;25.9;37.8
49583;BME280;36329;48.816;44.624;2023-07-20T16:46:32;100518;;;25.8;38.3
49583;BME280;36329;48.816;44.624;2023-07-20T16:49:35;100515;;;25.7;38.5
49583;BME280;36329;48.816;44.624;2023-07-20T16:52:37;100518;;;25.7;38.9